Beech Croft, New York
Current Conditions -  °F | °C
As of 4:53 AM on Friday 21 Nov 2014 (Local Time) from KFRG Reporting Station
Clear Clear  
Wind Chill: 19°   Ceiling: Unl
Heat Index: 29°   Visibility: 10mi
Dew Point:   Wind: 12mph
Humidity: 41%   Direction: 300°WNW
Pressure: 30.11"   Gusts: 18mph
Location:  40.8966°N, 73.4362°W
Report Text: KFRG 210953Z AUTO 30010G16KT 10SM CLR M02/M13 A3011 RMK AO2 SLP198 T10171133
Loading
Personal Weather Stations






























Interactive Weather Map New forecast layout! Learn more

10-Day Weather Forecast

Advertisements
Track Severe Weather on mobile